Glennallen, AK (99588)

2:41 AM AKDT on September 22, 2014 (GMT -0800)
AKDOT Glenn Highway @ MP 176.6 | Change Station
CLOSE
Current Station
Personal Weather Station
Location: Glennallen, AK
Elevation: 2112 ft
Nearby Weather Stations

Elev 2112 ft 62.11 °N, 145.85 °W | Updated 46 minutes ago

Scattered Clouds
Scattered Clouds
39 °F
Feels Like 33 °F
N
9
Wind Variable Wind from West
Gusts 22.0 mph

Today
High -- | Low -- °F
--% Chance of Precip.
Yesterday
High -- | Low -- °F
Precip. -- in
7:29 AM 7:44 PM
Waning Crescent, 3% visible
Pressure 29.33 in
Visibility 10.0 miles
Clouds Few 4800 ft
Scattered Clouds 6000 ft
Windchill 33 °F
Dew Point 24 °F
Humidity 53%
Rainfall -999.00 in
Snow Depth 0 in , 0 in , 0 in
UV 0 out of 12
Pollen Not available.
Air Quality Not available.
Flu Activity Not available.
METAR PAGK 220953Z AUTO 32010G20KT 10SM FEW048 SCT060 06/M04 A2930 RMK AO2 SLP930 T00561039 TSNO

More Conditions Fewer Conditions

Pressure 29.33 in
Visibility 10.0 miles
Clouds Few 4800 ft
Scattered Clouds 6000 ft
Windchill 33 °F
Dew Point 24 °F
Humidity 53%
Rainfall -999.00 in
Snow Depth 0 in , 0 in , 0 in
UV 0 out of 12
Pollen Not available.
Air Quality Not available.
Flu Activity Not available.
METAR PAGK 220953Z AUTO 32010G20KT 10SM FEW048 SCT060 06/M04 A2930 RMK AO2 SLP930 T00561039 TSNO

More Conditions Fewer Conditions

10-Day Weather Forecast

Almanac

Astronomy

Sep. 22, 2014 Rise Set
Actual Time 7:29 AM AKDT 7:44 PM AKDT
Civil Twilight 6:45 AM AKDT 8:29 PM AKDT
Nautical Twilight 5:51 AM AKDT 9:22 PM AKDT
Astronomical Twilight 4:50 AM AKDT 10:22 PM AKDT
Moon 5:51 AM AKDT 7:04 PM AKDT
Length of Visible Light 13h 44m
Length of Day
12h 15m
Tomorrow will be 5m 52s shorter.
Waning Crescent, 3% of the Moon is Illuminated
Today
Waning Crescent
Sep 24
New
Oct 1
First Quarter
Oct 8
Full
Oct 15
Last Quarter

Today's Extremes

State Highs State Lows

Community

WunderPhotos

Upload Photos

1,755,408 photos uploaded!

Nearby

Snow Depth

Station Depth Elevation
Granite Creek 0 in 1240 ft
Fort Yukon 0 in 430 ft
Grouse Creek Divide 0 in 700 ft
Indian Pass 1 in 2300 ft
Grandview 1 in 1100 ft

Earthquake Activity

City Distance Mag. Time & Date
No recent earthquake activity has been reported nearby.
Minimum magnitude displayed is 2.5.

Coastal Water Temperatures

Place Temperature
No Stations Reporting

Nearby Weather Stations